Time;durP1;ratioP1;P1;durP2;ratioP2;P2;SDS_P1;SDS_P2;PMS_P1;PMS_P2;Temp;Humidity;BMP_temperature;BMP_pressure;BME280_temperature;BME280_humidity;BME280_pressure;Samples;Min_cycle;Max_cycle;Signal;HPM_P1;HPM_P2
2021/09/20 00:02:15;;;;;;;;;;;20.50;65.70;;;;;;5096500;28;19909;-68
2021/09/20 00:04:42;;;;;;;;;;;20.50;65.60;;;;;;5099132;28;19916;-69
2021/09/20 00:07:08;;;;;;;;;;;20.40;65.50;;;;;;5099815;28;19999;-69
2021/09/20 00:09:35;;;;;;;;;;;20.30;64.60;;;;;;5097409;28;19909;-69
2021/09/20 00:12:02;;;;;;;;;;;20.40;66.40;;;;;;5095746;28;19909;-68
2021/09/20 00:14:28;;;;;;;;;;;20.50;64.90;;;;;;5095425;28;20310;-68
2021/09/20 00:16:55;;;;;;;;;;;20.60;63.70;;;;;;5095260;28;19937;-69
2021/09/20 00:19:22;;;;;;;;;;;20.80;64.00;;;;;;5095448;28;20363;-69
2021/09/20 00:21:48;;;;;;;;;;;20.90;64.80;;;;;;5095330;28;20458;-69
2021/09/20 00:24:15;;;;;;;;;;;20.90;64.80;;;;;;5095407;28;20004;-69
2021/09/20 00:26:42;;;;;;;;;;;21.00;64.50;;;;;;5094613;28;20327;-69
2021/09/20 00:29:09;;;;;;;;;;;21.00;64.50;;;;;;5094902;28;20248;-68
2021/09/20 00:31:35;;;;;;;;;;;21.00;63.10;;;;;;5094964;28;19917;-69
2021/09/20 00:34:03;;;;;;;;;;;21.10;62.60;;;;;;5095381;28;19908;-69
2021/09/20 00:36:29;;;;;;;;;;;21.10;64.00;;;;;;5095052;28;19912;-69
2021/09/20 00:38:56;;;;;;;;;;;21.20;62.80;;;;;;5095065;28;19924;-68
2021/09/20 00:41:25;;;;;;;;;;;21.30;63.40;;;;;;5094530;28;19908;-67
2021/09/20 00:43:52;;;;;;;;;;;21.40;62.00;;;;;;5094275;28;20026;-67
2021/09/20 00:46:20;;;;;;;;;;;21.40;62.40;;;;;;5095632;28;20370;-70
2021/09/20 00:48:48;;;;;;;;;;;21.40;64.30;;;;;;5095078;28;19908;-66
2021/09/20 00:51:14;;;;;;;;;;;21.40;63.50;;;;;;5095237;28;20014;-67
2021/09/20 00:53:41;;;;;;;;;;;21.70;61.70;;;;;;5095077;28;20434;-67
2021/09/20 00:56:09;;;;;;;;;;;21.80;61.80;;;;;;5094747;28;19919;-67
2021/09/20 00:58:36;;;;;;;;;;;21.80;62.20;;;;;;5093499;28;19943;-67
2021/09/20 01:01:02;;;;;;;;;;;22.00;62.20;;;;;;5095233;28;19908;-68
2021/09/20 01:03:29;;;;;;;;;;;22.00;61.50;;;;;;5095099;28;19956;-68
2021/09/20 01:05:58;;;;;;;;;;;22.20;59.00;;;;;;5095387;28;19973;-68
2021/09/20 01:08:27;;;;;;;;;;;22.80;56.60;;;;;;5094602;28;19930;-68
2021/09/20 01:10:53;;;;;;;;;;;23.30;56.10;;;;;;5094406;28;20010;-68
2021/09/20 01:13:20;;;;;;;;;;;23.40;54.70;;;;;;5094874;28;19909;-68
2021/09/20 01:15:47;;;;;;;;;;;23.70;53.40;;;;;;5095136;28;20282;-69
2021/09/20 01:18:13;;;;;;;;;;;24.00;56.00;;;;;;5094765;28;19938;-68
2021/09/20 01:20:40;;;;;;;;;;;24.40;54.80;;;;;;5095367;28;19915;-68
2021/09/20 01:23:07;;;;;;;;;;;24.40;53.50;;;;;;5094972;28;19916;-67
2021/09/20 01:25:33;;;;;;;;;;;24.70;53.00;;;;;;5094450;28;19950;-67
2021/09/20 01:28:00;;;;;;;;;;;24.70;55.30;;;;;;5095135;28;19915;-67
2021/09/20 01:30:27;;;;;;;;;;;24.60;54.10;;;;;;5094610;28;19908;-69
2021/09/20 01:32:54;;;;;;;;;;;24.20;55.30;;;;;;5095148;28;20357;-68
2021/09/20 01:35:22;;;;;;;;;;;23.80;53.60;;;;;;5094356;28;19931;-69
2021/09/20 01:37:50;;;;;;;;;;;23.50;55.20;;;;;;5093356;28;19916;-69
2021/09/20 01:40:17;;;;;;;;;;;23.40;55.70;;;;;;5094065;28;20355;-70
2021/09/20 01:42:44;;;;;;;;;;;23.20;55.00;;;;;;5096182;28;19919;-70
2021/09/20 01:45:11;;;;;;;;;;;23.10;55.70;;;;;;5096475;28;19978;-69
2021/09/20 01:47:38;;;;;;;;;;;23.30;53.50;;;;;;5095377;28;20290;-69
2021/09/20 01:50:07;;;;;;;;;;;23.40;54.10;;;;;;5093498;28;20065;-70
2021/09/20 01:52:33;;;;;;;;;;;23.30;55.30;;;;;;5093761;28;20303;-69
2021/09/20 01:55:00;;;;;;;;;;;23.40;55.60;;;;;;5092934;28;19908;-69
2021/09/20 01:57:27;;;;;;;;;;;23.30;53.90;;;;;;5092191;28;19981;-69
2021/09/20 01:59:53;;;;;;;;;;;23.10;54.40;;;;;;5093047;28;19916;-68
2021/09/20 02:02:20;;;;;;;;;;;23.10;54.90;;;;;;5093303;28;19944;-69
2021/09/20 02:04:47;;;;;;;;;;;23.20;55.10;;;;;;5093215;28;19961;-69
2021/09/20 02:07:13;;;;;;;;;;;23.10;55.90;;;;;;5093337;28;19912;-68
2021/09/20 02:09:40;;;;;;;;;;;23.20;54.90;;;;;;5092907;28;19962;-68
2021/09/20 02:12:07;;;;;;;;;;;23.20;55.50;;;;;;5093531;28;19908;-69
2021/09/20 02:14:33;;;;;;;;;;;23.40;53.50;;;;;;5093340;28;19912;-69
2021/09/20 02:17:00;;;;;;;;;;;23.40;53.90;;;;;;5093154;28;19954;-69
2021/09/20 02:19:27;;;;;;;;;;;23.30;51.60;;;;;;5092940;28;19908;-69
2021/09/20 02:21:54;;;;;;;;;;;23.50;50.90;;;;;;5093087;28;19955;-69
2021/09/20 02:24:20;;;;;;;;;;;23.40;48.30;;;;;;5092844;28;20283;-69
2021/09/20 02:26:47;;;;;;;;;;;23.20;49.20;;;;;;5090745;28;19908;-69
2021/09/20 02:29:14;;;;;;;;;;;23.40;50.00;;;;;;5092487;28;19908;-66
2021/09/20 02:31:40;;;;;;;;;;;23.40;48.40;;;;;;5092844;28;20367;-70
2021/09/20 02:34:07;;;;;;;;;;;23.40;51.00;;;;;;5092884;28;19912;-70
2021/09/20 02:36:34;;;;;;;;;;;23.40;48.70;;;;;;5092838;28;20260;-70
2021/09/20 02:39:00;;;;;;;;;;;23.30;48.30;;;;;;5092713;28;19915;-68
2021/09/20 02:41:28;;;;;;;;;;;23.30;48.70;;;;;;5092940;28;19908;-71
2021/09/20 02:43:55;;;;;;;;;;;23.30;48.70;;;;;;5092516;28;19915;-71
2021/09/20 02:46:22;;;;;;;;;;;23.20;50.50;;;;;;5092145;28;19914;-70
2021/09/20 02:48:48;;;;;;;;;;;23.20;50.30;;;;;;5092287;28;20349;-69
2021/09/20 02:51:20;;;;;;;;;;;23.50;49.60;;;;;;5092693;28;19935;-69
2021/09/20 02:53:47;;;;;;;;;;;23.50;49.30;;;;;;5092723;28;19912;-70
2021/09/20 02:56:13;;;;;;;;;;;23.40;49.60;;;;;;5092072;28;20029;-70
2021/09/20 02:58:40;;;;;;;;;;;23.60;48.30;;;;;;5092185;28;19999;-69
2021/09/20 03:01:06;;;;;;;;;;;23.40;49.70;;;;;;5092472;28;19916;-69
2021/09/20 03:03:35;;;;;;;;;;;23.30;50.50;;;;;;5092146;28;20125;-68
2021/09/20 03:06:01;;;;;;;;;;;23.40;48.00;;;;;;5090562;28;19912;-69
2021/09/20 03:08:28;;;;;;;;;;;23.40;47.30;;;;;;5092206;28;19908;-69
2021/09/20 03:10:55;;;;;;;;;;;23.50;48.30;;;;;;5089765;28;19912;-68
2021/09/20 03:13:21;;;;;;;;;;;23.50;48.10;;;;;;5092469;28;19919;-70
2021/09/20 03:15:48;;;;;;;;;;;23.40;48.70;;;;;;5092173;28;19912;-68
2021/09/20 03:18:15;;;;;;;;;;;23.60;48.80;;;;;;5092101;28;19908;-68
2021/09/20 03:20:41;;;;;;;;;;;23.60;47.60;;;;;;5091860;28;19908;-68
2021/09/20 03:23:08;;;;;;;;;;;23.50;48.50;;;;;;5126782;28;19912;-68
2021/09/20 03:25:34;;;;;;;;;;;23.70;47.70;;;;;;5094333;28;19980;-69
2021/09/20 03:28:01;;;;;;;;;;;23.70;46.50;;;;;;5093564;28;19908;-69
2021/09/20 03:30:28;;;;;;;;;;;23.50;46.60;;;;;;5071586;28;19909;-70
2021/09/20 03:32:54;;;;;;;;;;;23.60;46.80;;;;;;5072176;28;19916;-68
2021/09/20 03:35:21;;;;;;;;;;;23.50;46.30;;;;;;5072710;28;19909;-69
2021/09/20 03:37:48;;;;;;;;;;;23.50;46.10;;;;;;5071526;28;19912;-69
2021/09/20 03:40:16;;;;;;;;;;;23.40;46.90;;;;;;5071844;28;19915;-69
2021/09/20 03:42:43;;;;;;;;;;;23.50;45.40;;;;;;5071853;28;19916;-69
2021/09/20 03:45:10;;;;;;;;;;;23.50;45.50;;;;;;5071997;28;19916;-69
2021/09/20 03:47:37;;;;;;;;;;;23.60;46.30;;;;;;5087286;28;19908;-68
2021/09/20 03:50:05;;;;;;;;;;;23.60;45.50;;;;;;5071374;28;20295;-69
2021/09/20 03:52:32;;;;;;;;;;;23.50;45.60;;;;;;5071757;28;20424;-69
2021/09/20 03:54:59;;;;;;;;;;;23.50;47.20;;;;;;5071536;28;19934;-68
2021/09/20 03:57:26;;;;;;;;;;;23.40;45.90;;;;;;5076198;28;20002;-69
2021/09/20 03:59:53;;;;;;;;;;;23.50;45.40;;;;;;5091386;28;19915;-68
2021/09/20 04:02:19;;;;;;;;;;;23.50;45.90;;;;;;5091987;28;20397;-69
2021/09/20 04:04:46;;;;;;;;;;;23.60;46.30;;;;;;5091831;28;20290;-68
2021/09/20 04:07:13;;;;;;;;;;;23.70;45.50;;;;;;5091985;28;19908;-68
2021/09/20 04:09:41;;;;;;;;;;;23.60;44.20;;;;;;5090180;28;19908;-69
2021/09/20 04:12:09;;;;;;;;;;;23.50;45.30;;;;;;5091657;28;19944;-68
2021/09/20 04:14:39;;;;;;;;;;;23.60;44.30;;;;;;5091777;28;20012;-68
2021/09/20 04:17:06;;;;;;;;;;;23.80;44.60;;;;;;5093733;28;20011;-68
2021/09/20 04:19:33;;;;;;;;;;;23.70;44.30;;;;;;5095131;28;19916;-68
2021/09/20 04:22:00;;;;;;;;;;;23.60;45.00;;;;;;5095410;28;19912;-68
2021/09/20 04:24:27;;;;;;;;;;;23.60;45.30;;;;;;5095291;28;19920;-68
2021/09/20 04:26:54;;;;;;;;;;;23.60;45.40;;;;;;5095038;28;19912;-68
2021/09/20 04:29:20;;;;;;;;;;;23.80;45.60;;;;;;5094736;28;20007;-67
2021/09/20 04:31:49;;;;;;;;;;;23.80;45.60;;;;;;5094948;28;20422;-67
2021/09/20 04:34:18;;;;;;;;;;;23.80;45.00;;;;;;5095567;28;20346;-68
2021/09/20 04:36:44;;;;;;;;;;;23.80;44.40;;;;;;5095186;28;19912;-68
2021/09/20 04:39:11;;;;;;;;;;;23.80;44.10;;;;;;5092962;28;19908;-68
2021/09/20 04:41:40;;;;;;;;;;;23.60;43.80;;;;;;5094634;28;20003;-67
2021/09/20 04:44:07;;;;;;;;;;;23.80;43.40;;;;;;5094722;28;19932;-67
2021/09/20 04:46:34;;;;;;;;;;;23.90;42.90;;;;;;5090598;28;19918;-68
2021/09/20 04:49:00;;;;;;;;;;;23.80;42.80;;;;;;5094725;28;20397;-68
2021/09/20 04:51:27;;;;;;;;;;;23.60;44.90;;;;;;5094509;28;20070;-67
2021/09/20 04:53:53;;;;;;;;;;;23.60;44.50;;;;;;5094585;28;19912;-68
2021/09/20 04:56:20;;;;;;;;;;;23.70;45.90;;;;;;5095040;28;19912;-68
2021/09/20 04:58:47;;;;;;;;;;;23.70;45.40;;;;;;5094461;28;19908;-68
2021/09/20 05:01:13;;;;;;;;;;;23.60;45.90;;;;;;5095066;28;20018;-68
2021/09/20 05:03:40;;;;;;;;;;;23.50;44.30;;;;;;5096696;28;19912;-68
2021/09/20 05:06:07;;;;;;;;;;;23.50;45.80;;;;;;5097314;28;20416;-69
2021/09/20 05:08:33;;;;;;;;;;;23.60;45.10;;;;;;5095726;28;19957;-69
2021/09/20 05:11:00;;;;;;;;;;;23.80;45.20;;;;;;5094337;28;19938;-68
2021/09/20 05:13:27;;;;;;;;;;;23.70;46.30;;;;;;5094296;28;20419;-68
2021/09/20 05:15:54;;;;;;;;;;;23.60;45.90;;;;;;5094142;28;20007;-69
2021/09/20 05:18:20;;;;;;;;;;;23.50;46.00;;;;;;5093901;28;19909;-68
2021/09/20 05:20:47;;;;;;;;;;;23.60;45.70;;;;;;5094413;28;19960;-68
2021/09/20 05:23:14;;;;;;;;;;;23.70;45.60;;;;;;5094261;28;19926;-68
2021/09/20 05:25:40;;;;;;;;;;;23.60;46.60;;;;;;5094230;28;19931;-67
2021/09/20 05:28:07;;;;;;;;;;;23.50;46.30;;;;;;5093468;28;19923;-68
2021/09/20 05:30:34;;;;;;;;;;;23.40;46.70;;;;;;5094189;28;19918;-68
2021/09/20 05:33:01;;;;;;;;;;;23.60;46.50;;;;;;5093889;28;19908;-69
2021/09/20 05:35:27;;;;;;;;;;;23.50;46.80;;;;;;5093589;28;19908;-69
2021/09/20 05:37:54;;;;;;;;;;;23.50;47.20;;;;;;5093549;28;19908;-68
2021/09/20 05:40:22;;;;;;;;;;;23.50;47.20;;;;;;5093938;28;19908;-67
2021/09/20 05:42:55;;;;;;;;;;;23.40;47.50;;;;;;5092677;28;19995;-67
2021/09/20 05:45:23;;;;;;;;;;;23.40;47.30;;;;;;5093732;28;19916;-68
2021/09/20 05:47:50;;;;;;;;;;;23.30;46.90;;;;;;5093091;28;20323;-67
2021/09/20 05:50:18;;;;;;;;;;;23.40;46.60;;;;;;5093516;28;19920;-68
2021/09/20 05:52:44;;;;;;;;;;;23.40;46.90;;;;;;5093822;28;19912;-69
2021/09/20 05:55:12;;;;;;;;;;;23.30;47.50;;;;;;5093573;28;19961;-67
2021/09/20 05:57:39;;;;;;;;;;;23.30;46.70;;;;;;5091673;28;19974;-68
2021/09/20 06:00:07;;;;;;;;;;;23.30;47.50;;;;;;5093249;28;19908;-68
2021/09/20 06:02:33;;;;;;;;;;;23.20;46.50;;;;;;5093560;28;20335;-68
2021/09/20 06:05:00;;;;;;;;;;;23.10;47.60;;;;;;5093066;28;20080;-69
2021/09/20 06:07:27;;;;;;;;;;;23.10;47.40;;;;;;5093204;28;20133;-69
2021/09/20 06:09:56;;;;;;;;;;;23.00;48.00;;;;;;5092832;28;19912;-68
2021/09/20 06:12:23;;;;;;;;;;;22.90;47.20;;;;;;5093215;28;19919;-68
2021/09/20 06:14:50;;;;;;;;;;;22.90;47.00;;;;;;5093253;28;19908;-68
2021/09/20 06:17:19;;;;;;;;;;;23.10;46.70;;;;;;5093035;28;19908;-68
2021/09/20 06:19:47;;;;;;;;;;;23.00;46.90;;;;;;5092545;28;20045;-68
2021/09/20 06:22:14;;;;;;;;;;;23.00;47.20;;;;;;5092939;28;20371;-68
2021/09/20 06:24:42;;;;;;;;;;;22.90;46.00;;;;;;5092884;28;19927;-69
2021/09/20 06:27:09;;;;;;;;;;;23.00;45.40;;;;;;5092566;28;19912;-68
2021/09/20 06:29:36;;;;;;;;;;;23.10;45.90;;;;;;5092199;28;19908;-68
2021/09/20 06:32:02;;;;;;;;;;;23.10;45.80;;;;;;5092993;28;19953;-68
2021/09/20 06:34:29;;;;;;;;;;;23.10;45.70;;;;;;5092709;28;20324;-68
2021/09/20 06:36:59;;;;;;;;;;;23.00;46.40;;;;;;5092863;28;19991;-69
2021/09/20 06:39:26;;;;;;;;;;;23.00;46.50;;;;;;5092038;28;20294;-68
2021/09/20 06:41:53;;;;;;;;;;;22.90;47.30;;;;;;5092119;28;20003;-68
2021/09/20 06:44:20;;;;;;;;;;;22.70;46.90;;;;;;5094692;28;20361;-68
2021/09/20 06:46:46;;;;;;;;;;;22.60;47.90;;;;;;5094297;28;20003;-68
2021/09/20 06:49:16;;;;;;;;;;;22.60;46.90;;;;;;5093411;28;19939;-68
2021/09/20 06:51:43;;;;;;;;;;;22.60;46.90;;;;;;5090314;28;19964;-68
2021/09/20 06:54:10;;;;;;;;;;;22.50;47.40;;;;;;5090386;28;19935;-69
2021/09/20 06:56:38;;;;;;;;;;;22.50;46.30;;;;;;5090385;28;20710;-68
2021/09/20 06:59:05;;;;;;;;;;;22.50;46.60;;;;;;5090216;28;20286;-68
2021/09/20 07:01:31;;;;;;;;;;;22.60;46.50;;;;;;5090101;28;19915;-69
2021/09/20 07:03:58;;;;;;;;;;;22.40;47.00;;;;;;5089889;28;19916;-69
2021/09/20 07:06:25;;;;;;;;;;;22.30;47.70;;;;;;5089350;28;19923;-68
2021/09/20 07:08:52;;;;;;;;;;;22.30;48.20;;;;;;5090010;28;19919;-69
2021/09/20 07:11:18;;;;;;;;;;;22.30;49.30;;;;;;5090317;28;19908;-68
2021/09/20 07:13:45;;;;;;;;;;;22.30;47.40;;;;;;5089687;28;19908;-67
2021/09/20 07:16:12;;;;;;;;;;;22.20;48.30;;;;;;5090064;28;19908;-68
2021/09/20 07:18:38;;;;;;;;;;;22.10;48.30;;;;;;5089694;28;19912;-68
2021/09/20 07:21:05;;;;;;;;;;;22.10;48.20;;;;;;5090360;28;19931;-68
2021/09/20 07:23:32;;;;;;;;;;;22.20;49.30;;;;;;5089785;28;19912;-68
2021/09/20 07:25:58;;;;;;;;;;;22.10;48.10;;;;;;5090423;28;19947;-69
2021/09/20 07:28:25;;;;;;;;;;;22.10;50.00;;;;;;5089962;28;19957;-68
2021/09/20 07:30:52;;;;;;;;;;;22.10;48.50;;;;;;5089772;28;19954;-68
2021/09/20 07:33:18;;;;;;;;;;;22.00;48.70;;;;;;5090256;28;19935;-69
2021/09/20 07:35:45;;;;;;;;;;;22.00;50.10;;;;;;5089755;28;19961;-69
2021/09/20 07:38:12;;;;;;;;;;;21.90;49.70;;;;;;5089759;28;19909;-68
2021/09/20 07:40:41;;;;;;;;;;;21.90;49.90;;;;;;5089881;28;20282;-69
2021/09/20 07:43:08;;;;;;;;;;;21.80;50.50;;;;;;5088087;28;19961;-68
2021/09/20 07:45:34;;;;;;;;;;;21.80;50.40;;;;;;5089541;28;20397;-68
2021/09/20 07:48:02;;;;;;;;;;;21.80;49.50;;;;;;5090329;28;19947;-69
2021/09/20 07:50:28;;;;;;;;;;;21.70;51.00;;;;;;5088515;28;19924;-68
2021/09/20 07:52:55;;;;;;;;;;;21.70;50.00;;;;;;5093381;28;19912;-69
2021/09/20 07:55:22;;;;;;;;;;;21.70;51.20;;;;;;5093764;28;19915;-69
2021/09/20 07:57:48;;;;;;;;;;;21.60;51.10;;;;;;5092488;28;19953;-68
2021/09/20 08:00:15;;;;;;;;;;;21.70;50.20;;;;;;5093822;28;19908;-69
2021/09/20 08:02:42;;;;;;;;;;;21.80;50.40;;;;;;5089292;28;19953;-69
2021/09/20 08:05:10;;;;;;;;;;;21.70;50.80;;;;;;5093313;28;19955;-69
2021/09/20 08:07:36;;;;;;;;;;;21.80;51.10;;;;;;5093136;28;19915;-68
2021/09/20 08:10:04;;;;;;;;;;;21.70;52.00;;;;;;5093385;28;19938;-68
2021/09/20 08:12:30;;;;;;;;;;;21.70;50.60;;;;;;5126004;27;20013;-68
2021/09/20 08:14:57;;;;;;;;;;;21.70;51.40;;;;;;5093044;28;19908;-68
2021/09/20 08:17:23;;;;;;;;;;;21.70;50.70;;;;;;5093166;28;20298;-68
2021/09/20 08:19:50;;;;;;;;;;;21.60;51.00;;;;;;5092577;28;19912;-68
2021/09/20 08:22:17;;;;;;;;;;;21.60;51.70;;;;;;5093562;28;19932;-68
2021/09/20 08:24:43;;;;;;;;;;;21.60;52.40;;;;;;5094752;28;20561;-67
2021/09/20 08:27:10;;;;;;;;;;;21.50;51.00;;;;;;5095138;28;19912;-67
2021/09/20 08:29:37;;;;;;;;;;;21.60;50.90;;;;;;5094421;28;20008;-67
2021/09/20 08:32:07;;;;;;;;;;;21.70;55.80;;;;;;5094097;28;19916;-68
2021/09/20 08:34:37;;;;;;;;;;;21.30;58.90;;;;;;5093539;28;20320;-68
2021/09/20 08:37:03;;;;;;;;;;;20.90;61.30;;;;;;5093073;28;19922;-67
2021/09/20 08:39:30;;;;;;;;;;;20.50;62.80;;;;;;5092572;28;19954;-67
2021/09/20 08:42:00;;;;;;;;;;;20.20;63.80;;;;;;5092305;28;19912;-68
2021/09/20 08:44:27;;;;;;;;;;;19.90;64.70;;;;;;5092902;28;19920;-68
2021/09/20 08:46:54;;;;;;;;;;;19.80;65.50;;;;;;5092727;28;20417;-68
2021/09/20 08:49:22;;;;;;;;;;;19.60;66.00;;;;;;5092293;28;19912;-68
2021/09/20 08:51:51;;;;;;;;;;;19.30;66.60;;;;;;5092705;28;19938;-68
2021/09/20 08:54:18;;;;;;;;;;;19.10;67.10;;;;;;5092317;28;19912;-67
2021/09/20 08:56:45;;;;;;;;;;;18.80;67.90;;;;;;5092635;28;20333;-68
2021/09/20 08:59:12;;;;;;;;;;;18.80;68.70;;;;;;5092404;28;19912;-68
2021/09/20 09:01:42;;;;;;;;;;;18.70;69.00;;;;;;5092642;28;20003;-69
2021/09/20 09:04:27;;;;;;;;;;;18.50;70.00;;;;;;5091691;28;20451;-68
2021/09/20 09:07:02;;;;;;;;;;;18.10;71.60;;;;;;5094388;28;19957;-68
2021/09/20 09:09:34;;;;;;;;;;;17.60;73.10;;;;;;5094497;28;19920;-68
2021/09/20 09:12:19;;;;;;;;;;;17.10;74.60;;;;;;5094373;28;19954;-68
2021/09/20 09:14:50;;;;;;;;;;;16.70;75.90;;;;;;5094520;28;20440;-67
2021/09/20 09:17:22;;;;;;;;;;;16.50;76.60;;;;;;5094512;28;19908;-67
2021/09/20 09:19:50;;;;;;;;;;;16.30;76.50;;;;;;5093854;28;19916;-67
2021/09/20 09:22:17;;;;;;;;;;;16.30;76.90;;;;;;5094418;28;19916;-68
2021/09/20 09:24:58;;;;;;;;;;;16.10;77.00;;;;;;5127092;27;19935;-67
2021/09/20 09:27:26;;;;;;;;;;;16.00;77.20;;;;;;5094365;28;19908;-67
2021/09/20 09:30:00;;;;;;;;;;;15.90;75.80;;;;;;5094141;28;19912;-67
2021/09/20 09:32:27;;;;;;;;;;;15.90;75.20;;;;;;5094588;28;19947;-67
2021/09/20 09:34:56;;;;;;;;;;;15.70;74.30;;;;;;5095815;28;19912;-68
2021/09/20 09:37:22;;;;;;;;;;;15.40;73.50;;;;;;5094165;28;19908;-68
2021/09/20 09:39:49;;;;;;;;;;;15.40;73.70;;;;;;5093866;28;19915;-68
2021/09/20 09:42:29;;;;;;;;;;;15.40;73.70;;;;;;5073867;28;19916;-68
2021/09/20 09:44:56;;;;;;;;;;;15.40;73.10;;;;;;5073504;28;20023;-68
2021/09/20 09:47:31;;;;;;;;;;;15.30;73.40;;;;;;5073252;28;20385;-67
2021/09/20 09:50:16;;;;;;;;;;;15.30;73.20;;;;;;5072948;28;19978;-67
2021/09/20 09:52:43;;;;;;;;;;;15.30;73.40;;;;;;5072831;28;19912;-67
2021/09/20 09:55:11;;;;;;;;;;;15.20;72.80;;;;;;5072962;28;20394;-66
2021/09/20 09:57:38;;;;;;;;;;;15.00;73.30;;;;;;5073529;28;19909;-67
2021/09/20 10:00:09;;;;;;;;;;;15.00;73.10;;;;;;5073229;28;20049;-67
2021/09/20 10:02:37;;;;;;;;;;;14.80;73.70;;;;;;5073227;28;19915;-67
2021/09/20 10:05:11;;;;;;;;;;;14.80;74.10;;;;;;5074407;28;20354;-68
2021/09/20 10:07:39;;;;;;;;;;;14.70;74.20;;;;;;5076237;28;19915;-68
2021/09/20 10:10:08;;;;;;;;;;;14.70;74.10;;;;;;5077043;28;19961;-67
2021/09/20 10:12:35;;;;;;;;;;;14.70;74.20;;;;;;5074812;28;19909;-68
2021/09/20 10:15:02;;;;;;;;;;;14.70;74.00;;;;;;5072771;28;19908;-67
2021/09/20 10:17:30;;;;;;;;;;;14.70;74.10;;;;;;5105425;28;20003;-67
2021/09/20 10:19:57;;;;;;;;;;;14.70;73.40;;;;;;5072555;28;19912;-68
2021/09/20 10:22:27;;;;;;;;;;;14.70;73.10;;;;;;5072158;28;19915;-68
2021/09/20 10:24:55;;;;;;;;;;;14.70;72.80;;;;;;5072690;28;19926;-68
2021/09/20 10:27:22;;;;;;;;;;;14.70;72.10;;;;;;5072758;28;20362;-68
2021/09/20 10:29:54;;;;;;;;;;;14.90;72.60;;;;;;5072083;28;19913;-68
2021/09/20 10:32:21;;;;;;;;;;;15.00;72.00;;;;;;5072682;28;19916;-67
2021/09/20 10:34:51;;;;;;;;;;;15.00;70.80;;;;;;5072710;28;19912;-68
2021/09/20 10:37:23;;;;;;;;;;;15.00;71.20;;;;;;5071986;28;19912;-67
2021/09/20 10:40:01;;;;;;;;;;;15.10;71.10;;;;;;5072417;28;20438;-68
2021/09/20 10:42:37;;;;;;;;;;;15.00;69.90;;;;;;5072831;28;19939;-67
2021/09/20 10:45:04;;;;;;;;;;;15.00;70.20;;;;;;5072373;28;19982;-68
2021/09/20 10:47:44;;;;;;;;;;;14.90;69.80;;;;;;5072574;28;20330;-67
2021/09/20 10:50:12;;;;;;;;;;;15.00;70.50;;;;;;5072315;28;19928;-67
2021/09/20 10:52:58;;;;;;;;;;;14.90;69.70;;;;;;5072180;28;20363;-68
2021/09/20 10:55:25;;;;;;;;;;;14.80;70.00;;;;;;5068500;28;19939;-68
2021/09/20 10:58:10;;;;;;;;;;;14.60;70.60;;;;;;5072342;28;19909;-68
2021/09/20 11:00:36;;;;;;;;;;;14.60;71.20;;;;;;5072674;28;19908;-68
2021/09/20 11:03:21;;;;;;;;;;;14.40;72.90;;;;;;5072339;28;19929;-68
2021/09/20 11:06:07;;;;;;;;;;;14.30;74.60;;;;;;5072384;28;20418;-67
2021/09/20 11:08:34;;;;;;;;;;;14.30;77.10;;;;;;5071459;28;20010;-67
2021/09/20 11:11:01;;;;;;;;;;;14.30;79.00;;;;;;5072158;28;19909;-67
2021/09/20 11:13:27;;;;;;;;;;;14.30;79.90;;;;;;5072275;28;20374;-68
2021/09/20 11:15:54;;;;;;;;;;;14.20;80.20;;;;;;5071657;28;19920;-67
2021/09/20 11:18:33;;;;;;;;;;;14.10;84.00;;;;;;5071729;28;19912;-67
2021/09/20 11:21:06;;;;;;;;;;;14.00;82.80;;;;;;5071786;28;19991;-67
2021/09/20 11:23:35;;;;;;;;;;;14.10;83.60;;;;;;5072057;28;20256;-68
2021/09/20 11:26:13;;;;;;;;;;;14.00;80.80;;;;;;5072250;28;19908;-67
2021/09/20 11:28:42;;;;;;;;;;;14.00;81.00;;;;;;5075691;28;19909;-68
2021/09/20 11:31:09;;;;;;;;;;;14.10;82.20;;;;;;5076590;28;19916;-68
2021/09/20 11:33:38;;;;;;;;;;;14.10;82.00;;;;;;5075702;28;19912;-68
2021/09/20 11:36:19;;;;;;;;;;;14.20;81.80;;;;;;5075792;28;19974;-67
2021/09/20 11:38:46;;;;;;;;;;;14.20;82.30;;;;;;5075669;28;19948;-68
2021/09/20 11:41:20;;;;;;;;;;;14.20;81.30;;;;;;5108127;28;20005;-67
2021/09/20 11:43:47;;;;;;;;;;;14.20;81.60;;;;;;5075526;28;19912;-68
2021/09/20 11:46:18;;;;;;;;;;;14.30;82.40;;;;;;5078034;28;19919;-68
2021/09/20 11:48:44;;;;;;;;;;;14.30;78.60;;;;;;5078100;28;19915;-68
2021/09/20 11:51:12;;;;;;;;;;;14.40;79.00;;;;;;5077642;28;20291;-68
2021/09/20 11:53:39;;;;;;;;;;;14.30;77.40;;;;;;5075781;28;19923;-68
2021/09/20 11:56:05;;;;;;;;;;;14.30;77.40;;;;;;5075779;28;19957;-68
2021/09/20 11:58:32;;;;;;;;;;;14.40;76.80;;;;;;5075233;28;19936;-68
2021/09/20 12:00:59;;;;;;;;;;;14.40;76.70;;;;;;5075935;28;20170;-68
2021/09/20 12:03:25;;;;;;;;;;;14.30;75.80;;;;;;5075949;28;19912;-69
2021/09/20 12:05:53;;;;;;;;;;;14.40;76.80;;;;;;5077131;28;19905;-68
2021/09/20 12:08:20;;;;;;;;;;;14.50;76.10;;;;;;5075513;28;19909;-69
2021/09/20 12:10:47;;;;;;;;;;;14.50;75.90;;;;;;5075222;28;19909;-69
2021/09/20 12:13:18;;;;;;;;;;;14.50;75.70;;;;;;5075494;28;19912;-69
2021/09/20 12:15:47;;;;;;;;;;;14.50;74.90;;;;;;5074864;28;19913;-68
2021/09/20 12:18:14;;;;;;;;;;;14.60;76.00;;;;;;5074949;28;19913;-68
2021/09/20 12:20:44;;;;;;;;;;;14.60;74.80;;;;;;5074754;28;19963;-68
2021/09/20 12:23:12;;;;;;;;;;;14.50;75.20;;;;;;5075235;28;19912;-68
2021/09/20 12:25:43;;;;;;;;;;;14.50;75.20;;;;;;5074696;28;19916;-68
2021/09/20 12:28:23;;;;;;;;;;;14.60;75.00;;;;;;5075022;28;19908;-69
2021/09/20 12:30:53;;;;;;;;;;;14.40;74.70;;;;;;5074899;28;20351;-68
2021/09/20 12:33:20;;;;;;;;;;;14.50;75.10;;;;;;5075007;28;20381;-68
2021/09/20 12:35:46;;;;;;;;;;;14.50;75.10;;;;;;5074259;28;19954;-68
2021/09/20 12:38:32;;;;;;;;;;;14.60;75.20;;;;;;5072961;28;19915;-68
2021/09/20 12:41:01;;;;;;;;;;;14.60;74.70;;;;;;5079890;28;19908;-68
2021/09/20 12:43:29;;;;;;;;;;;14.60;74.40;;;;;;5074851;28;19908;-68
2021/09/20 12:46:14;;;;;;;;;;;14.50;74.20;;;;;;5075018;28;19966;-68
2021/09/20 12:48:42;;;;;;;;;;;14.40;74.70;;;;;;5074640;28;19908;-68
2021/09/20 12:51:10;;;;;;;;;;;14.30;75.50;;;;;;5074006;28;19955;-68
2021/09/20 12:53:39;;;;;;;;;;;14.40;75.30;;;;;;5074552;28;19908;-68
2021/09/20 12:56:08;;;;;;;;;;;14.50;76.20;;;;;;5074525;28;19909;-68
2021/09/20 12:58:39;;;;;;;;;;;14.40;74.80;;;;;;5074542;28;19935;-68
2021/09/20 13:01:07;;;;;;;;;;;14.30;74.60;;;;;;5073221;28;19919;-68
2021/09/20 13:03:35;;;;;;;;;;;14.20;75.20;;;;;;5074139;28;19919;-68
2021/09/20 13:06:04;;;;;;;;;;;14.20;76.00;;;;;;5074240;28;20438;-69
2021/09/20 13:08:31;;;;;;;;;;;14.40;75.40;;;;;;5074539;28;19954;-68
2021/09/20 13:11:12;;;;;;;;;;;14.30;75.30;;;;;;5074434;28;20316;-68
2021/09/20 13:13:40;;;;;;;;;;;14.20;75.10;;;;;;5106479;28;20367;-68
2021/09/20 13:16:09;;;;;;;;;;;14.20;75.40;;;;;;5074765;28;19974;-67
2021/09/20 13:18:35;;;;;;;;;;;14.20;75.50;;;;;;5074323;28;19936;-69
2021/09/20 13:21:24;;;;;;;;;;;14.20;76.10;;;;;;5074276;28;19993;-68
2021/09/20 13:23:52;;;;;;;;;;;14.20;76.20;;;;;;5074090;28;20252;-69
2021/09/20 13:26:40;;;;;;;;;;;14.30;76.20;;;;;;5074603;28;19913;-69
2021/09/20 13:29:07;;;;;;;;;;;14.30;76.80;;;;;;5074409;28;20299;-69
2021/09/20 13:31:34;;;;;;;;;;;14.30;76.40;;;;;;5074183;28;19912;-69
2021/09/20 13:34:02;;;;;;;;;;;14.30;76.80;;;;;;5074177;28;19912;-69
2021/09/20 13:36:29;;;;;;;;;;;14.30;77.00;;;;;;5073984;28;20274;-68
2021/09/20 13:38:56;;;;;;;;;;;14.30;76.90;;;;;;5073920;28;19908;-68
2021/09/20 13:41:23;;;;;;;;;;;14.30;76.80;;;;;;5073826;28;19944;-69
2021/09/20 13:43:51;;;;;;;;;;;14.30;76.80;;;;;;5073559;28;20338;-68
2021/09/20 13:46:20;;;;;;;;;;;14.30;76.10;;;;;;5074059;28;20075;-68
2021/09/20 13:48:47;;;;;;;;;;;14.20;76.20;;;;;;5073311;28;20323;-69
2021/09/20 13:51:14;;;;;;;;;;;14.20;76.90;;;;;;5073519;28;19927;-69
2021/09/20 13:53:41;;;;;;;;;;;14.10;77.00;;;;;;5073442;28;19935;-69
2021/09/20 13:56:08;;;;;;;;;;;14.00;76.90;;;;;;5073431;28;19999;-68
2021/09/20 13:58:35;;;;;;;;;;;14.00;77.00;;;;;;5073559;28;19908;-69
2021/09/20 14:01:01;;;;;;;;;;;14.00;77.30;;;;;;5073564;28;19953;-68
2021/09/20 14:03:28;;;;;;;;;;;13.90;76.90;;;;;;5073514;28;19915;-68
2021/09/20 14:05:55;;;;;;;;;;;13.90;76.60;;;;;;5073591;28;19912;-68
2021/09/20 14:08:22;;;;;;;;;;;13.90;77.20;;;;;;5073382;28;20442;-68
2021/09/20 14:10:50;;;;;;;;;;;13.80;77.20;;;;;;5073089;28;19908;-68
2021/09/20 14:13:17;;;;;;;;;;;13.80;78.00;;;;;;5073335;28;19909;-68
2021/09/20 14:15:45;;;;;;;;;;;13.70;78.10;;;;;;5073121;28;19919;-67
2021/09/20 14:18:11;;;;;;;;;;;13.60;78.70;;;;;;5075248;28;19959;-68
2021/09/20 14:20:38;;;;;;;;;;;13.60;78.00;;;;;;5074529;28;19908;-68
2021/09/20 14:23:06;;;;;;;;;;;13.60;78.70;;;;;;5074189;28;19916;-68